sensor_id;sensor_type;location;lat;lon;timestamp;pressure;altitude;pressure_sealevel;temperature;humidity
68941;BME280;55982;51.476;7.552;2023-03-21T00:00:33;99880.75;;;9.75;100.00
68941;BME280;55982;51.476;7.552;2023-03-21T00:02:58;99869.59;;;9.70;100.00
68941;BME280;55982;51.476;7.552;2023-03-21T00:05:24;99865.19;;;9.72;100.00
68941;BME280;55982;51.476;7.552;2023-03-21T00:07:49;99867.00;;;9.70;100.00
68941;BME280;55982;51.476;7.552;2023-03-21T00:10:16;99858.97;;;9.76;100.00
68941;BME280;55982;51.476;7.552;2023-03-21T00:12:41;99859.16;;;9.70;100.00
68941;BME280;55982;51.476;7.552;2023-03-21T00:15:08;99857.25;;;9.75;100.00
68941;BME280;55982;51.476;7.552;2023-03-21T00:17:34;99852.16;;;9.70;100.00
68941;BME280;55982;51.476;7.552;2023-03-21T00:20:02;99852.31;;;9.66;100.00
68941;BME280;55982;51.476;7.552;2023-03-21T00:22:33;99850.34;;;9.72;100.00
68941;BME280;55982;51.476;7.552;2023-03-21T00:25:00;99849.59;;;9.69;100.00
68941;BME280;55982;51.476;7.552;2023-03-21T00:27:25;99845.22;;;9.69;100.00
68941;BME280;55982;51.476;7.552;2023-03-21T00:29:52;99840.88;;;9.70;100.00
68941;BME280;55982;51.476;7.552;2023-03-21T00:32:18;99841.69;;;9.72;100.00
68941;BME280;55982;51.476;7.552;2023-03-21T00:34:45;99831.25;;;9.72;100.00
68941;BME280;55982;51.476;7.552;2023-03-21T00:37:10;99833.91;;;9.69;100.00
68941;BME280;55982;51.476;7.552;2023-03-21T00:39:38;99826.91;;;9.71;100.00
68941;BME280;55982;51.476;7.552;2023-03-21T00:42:04;99830.31;;;9.73;100.00
68941;BME280;55982;51.476;7.552;2023-03-21T00:44:29;99828.53;;;9.75;100.00
68941;BME280;55982;51.476;7.552;2023-03-21T00:47:03;99820.63;;;9.76;100.00
68941;BME280;55982;51.476;7.552;2023-03-21T00:49:30;99828.53;;;9.75;100.00
68941;BME280;55982;51.476;7.552;2023-03-21T00:51:59;99818.94;;;9.75;100.00
68941;BME280;55982;51.476;7.552;2023-03-21T00:54:25;99819.00;;;9.74;100.00
68941;BME280;55982;51.476;7.552;2023-03-21T00:56:51;99812.75;;;9.78;100.00
68941;BME280;55982;51.476;7.552;2023-03-21T00:59:16;99814.56;;;9.76;100.00
68941;BME280;55982;51.476;7.552;2023-03-21T01:01:42;99807.50;;;9.78;100.00
68941;BME280;55982;51.476;7.552;2023-03-21T01:04:07;99807.50;;;9.78;100.00
68941;BME280;55982;51.476;7.552;2023-03-21T01:06:38;99804.13;;;9.76;100.00
68941;BME280;55982;51.476;7.552;2023-03-21T01:09:05;99801.63;;;9.71;100.00
68941;BME280;55982;51.476;7.552;2023-03-21T01:11:30;99800.59;;;9.77;100.00
68941;BME280;55982;51.476;7.552;2023-03-21T01:13:57;99799.78;;;9.75;100.00
68941;BME280;55982;51.476;7.552;2023-03-21T01:16:23;99801.41;;;9.79;100.00
68941;BME280;55982;51.476;7.552;2023-03-21T01:18:49;99803.22;;;9.77;100.00
68941;BME280;55982;51.476;7.552;2023-03-21T01:21:15;99802.28;;;9.78;100.00
68941;BME280;55982;51.476;7.552;2023-03-21T01:23:41;99791.94;;;9.75;100.00
68941;BME280;55982;51.476;7.552;2023-03-21T01:26:08;99798.78;;;9.79;100.00
68941;BME280;55982;51.476;7.552;2023-03-21T01:28:36;99791.13;;;9.73;100.00
68941;BME280;55982;51.476;7.552;2023-03-21T01:31:03;99798.91;;;9.76;100.00
68941;BME280;55982;51.476;7.552;2023-03-21T01:33:29;99790.16;;;9.77;100.00
68941;BME280;55982;51.476;7.552;2023-03-21T01:35:55;99785.59;;;9.83;100.00
68941;BME280;55982;51.476;7.552;2023-03-21T01:38:20;99788.25;;;9.82;100.00
68941;BME280;55982;51.476;7.552;2023-03-21T01:40:47;99779.41;;;9.86;100.00
68941;BME280;55982;51.476;7.552;2023-03-21T01:48:31;99784.56;;;9.89;100.00
68941;BME280;55982;51.476;7.552;2023-03-21T01:50:57;99781.13;;;9.87;100.00
68941;BME280;55982;51.476;7.552;2023-03-21T01:53:26;99777.59;;;9.88;100.00
68941;BME280;55982;51.476;7.552;2023-03-21T01:55:56;99773.25;;;9.88;100.00
68941;BME280;55982;51.476;7.552;2023-03-21T01:58:22;99780.16;;;9.89;100.00
68941;BME280;55982;51.476;7.552;2023-03-21T02:00:49;99772.31;;;9.91;100.00
68941;BME280;55982;51.476;7.552;2023-03-21T02:03:15;99774.09;;;9.89;100.00
68941;BME280;55982;51.476;7.552;2023-03-21T02:06:29;99767.34;;;9.82;100.00
68941;BME280;55982;51.476;7.552;2023-03-21T02:08:59;99768.88;;;9.89;100.00
68941;BME280;55982;51.476;7.552;2023-03-21T02:11:27;99766.97;;;9.94;100.00
68941;BME280;55982;51.476;7.552;2023-03-21T02:13:54;99769.69;;;9.91;100.00
68941;BME280;55982;51.476;7.552;2023-03-21T02:16:33;99763.53;;;9.92;100.00
68941;BME280;55982;51.476;7.552;2023-03-21T02:24:57;99752.44;;;9.85;100.00
68941;BME280;55982;51.476;7.552;2023-03-21T02:27:28;99747.97;;;9.89;100.00
68941;BME280;55982;51.476;7.552;2023-03-21T02:33:16;99742.06;;;9.82;100.00
68941;BME280;55982;51.476;7.552;2023-03-21T02:38:21;99733.25;;;9.86;100.00
68941;BME280;55982;51.476;7.552;2023-03-21T02:43:51;99748.06;;;9.86;100.00
68941;BME280;55982;51.476;7.552;2023-03-21T02:46:24;99746.44;;;9.82;100.00
68941;BME280;55982;51.476;7.552;2023-03-21T02:49:08;99752.44;;;9.85;100.00
68941;BME280;55982;51.476;7.552;2023-03-21T02:51:37;99745.56;;;9.83;100.00
68941;BME280;55982;51.476;7.552;2023-03-21T02:54:09;99740.38;;;9.81;100.00
68941;BME280;55982;51.476;7.552;2023-03-21T02:56:37;99744.81;;;9.78;100.00
68941;BME280;55982;51.476;7.552;2023-03-21T02:59:05;99746.44;;;9.82;100.00
68941;BME280;55982;51.476;7.552;2023-03-21T03:01:31;99738.41;;;9.88;100.00
68941;BME280;55982;51.476;7.552;2023-03-21T03:03:57;99741.03;;;9.88;100.00
68941;BME280;55982;51.476;7.552;2023-03-21T03:06:56;99741.94;;;9.87;100.00
68941;BME280;55982;51.476;7.552;2023-03-21T03:09:50;99739.41;;;9.84;100.00
68941;BME280;55982;51.476;7.552;2023-03-21T03:15:30;99736.72;;;9.87;100.00
68941;BME280;55982;51.476;7.552;2023-03-21T03:25:52;99736.09;;;9.79;100.00
68941;BME280;55982;51.476;7.552;2023-03-21T03:28:24;99735.22;;;9.78;100.00
68941;BME280;55982;51.476;7.552;2023-03-21T03:30:52;99728.44;;;9.73;100.00
68941;BME280;55982;51.476;7.552;2023-03-21T03:33:21;99733.78;;;9.70;100.00
68941;BME280;55982;51.476;7.552;2023-03-21T03:35:49;99724.22;;;9.69;100.00
68941;BME280;55982;51.476;7.552;2023-03-21T03:38:17;99724.16;;;9.70;100.00
68941;BME280;55982;51.476;7.552;2023-03-21T03:40:48;99725.13;;;9.68;100.00
68941;BME280;55982;51.476;7.552;2023-03-21T03:43:21;99722.53;;;9.68;100.00
68941;BME280;55982;51.476;7.552;2023-03-21T03:45:55;99713.94;;;9.63;100.00
68941;BME280;55982;51.476;7.552;2023-03-21T03:48:25;99715.75;;;9.61;100.00
68941;BME280;55982;51.476;7.552;2023-03-21T03:50:53;99710.66;;;9.58;100.00
68941;BME280;55982;51.476;7.552;2023-03-21T03:53:29;99718.44;;;9.59;100.00
68941;BME280;55982;51.476;7.552;2023-03-21T03:55:59;99702.00;;;9.56;100.00
68941;BME280;55982;51.476;7.552;2023-03-21T03:58:26;99702.19;;;9.50;100.00
68941;BME280;55982;51.476;7.552;2023-03-21T04:00:53;99701.53;;;9.43;100.00
68941;BME280;55982;51.476;7.552;2023-03-21T04:03:19;99692.97;;;9.38;100.00
68941;BME280;55982;51.476;7.552;2023-03-21T04:05:45;99693.91;;;9.36;100.00
68941;BME280;55982;51.476;7.552;2023-03-21T04:08:11;99695.69;;;9.34;100.00
68941;BME280;55982;51.476;7.552;2023-03-21T04:10:38;99699.22;;;9.33;100.00
68941;BME280;55982;51.476;7.552;2023-03-21T04:13:03;99700.16;;;9.30;100.00
68941;BME280;55982;51.476;7.552;2023-03-21T04:15:29;99693.16;;;9.32;100.00
68941;BME280;55982;51.476;7.552;2023-03-21T04:17:54;99695.81;;;9.31;100.00
68941;BME280;55982;51.476;7.552;2023-03-21T04:20:20;99685.38;;;9.31;100.00
68941;BME280;55982;51.476;7.552;2023-03-21T04:22:45;99681.94;;;9.29;100.00
68941;BME280;55982;51.476;7.552;2023-03-21T04:25:10;99690.41;;;9.37;100.00
68941;BME280;55982;51.476;7.552;2023-03-21T04:27:37;99687.97;;;9.31;100.00
68941;BME280;55982;51.476;7.552;2023-03-21T04:30:03;99695.69;;;9.34;100.00
68941;BME280;55982;51.476;7.552;2023-03-21T04:32:30;99690.59;;;9.31;100.00
68941;BME280;55982;51.476;7.552;2023-03-21T04:34:58;99688.78;;;9.33;100.00
68941;BME280;55982;51.476;7.552;2023-03-21T04:37:24;99687.09;;;9.32;100.00
68941;BME280;55982;51.476;7.552;2023-03-21T04:39:50;99690.41;;;9.37;100.00
68941;BME280;55982;51.476;7.552;2023-03-21T04:42:16;99683.47;;;9.36;100.00
68941;BME280;55982;51.476;7.552;2023-03-21T04:44:43;99686.19;;;9.33;100.00
68941;BME280;55982;51.476;7.552;2023-03-21T04:47:09;99685.25;;;9.34;100.00
68941;BME280;55982;51.476;7.552;2023-03-21T04:49:35;99681.94;;;9.29;100.00
68941;BME280;55982;51.476;7.552;2023-03-21T04:52:01;99676.72;;;9.29;100.00
68941;BME280;55982;51.476;7.552;2023-03-21T04:54:26;99673.31;;;9.27;100.00
68941;BME280;55982;51.476;7.552;2023-03-21T04:56:52;99672.44;;;9.28;100.00
68941;BME280;55982;51.476;7.552;2023-03-21T04:59:18;99669.81;;;9.28;100.00
68941;BME280;55982;51.476;7.552;2023-03-21T05:01:44;99659.44;;;9.24;100.00
68941;BME280;55982;51.476;7.552;2023-03-21T05:04:12;99666.41;;;9.26;100.00
68941;BME280;55982;51.476;7.552;2023-03-21T05:06:37;99662.97;;;9.23;100.00
68941;BME280;55982;51.476;7.552;2023-03-21T05:09:04;99668.19;;;9.23;100.00
68941;BME280;55982;51.476;7.552;2023-03-21T05:11:31;99666.47;;;9.22;100.00
68941;BME280;55982;51.476;7.552;2023-03-21T05:13:57;99664.66;;;9.24;100.00
68941;BME280;55982;51.476;7.552;2023-03-21T05:16:23;99668.09;;;9.27;100.00
68941;BME280;55982;51.476;7.552;2023-03-21T05:18:55;99659.31;;;9.29;100.00
68941;BME280;55982;51.476;7.552;2023-03-21T05:21:21;99662.78;;;9.30;100.00
68941;BME280;55982;51.476;7.552;2023-03-21T05:23:47;99659.38;;;9.28;100.00
68941;BME280;55982;51.476;7.552;2023-03-21T05:26:20;99656.66;;;9.31;100.00
68941;BME280;55982;51.476;7.552;2023-03-21T05:28:46;99654.00;;;9.32;100.00
68941;BME280;55982;51.476;7.552;2023-03-21T05:31:13;99655.78;;;9.32;100.00
68941;BME280;55982;51.476;7.552;2023-03-21T05:33:44;99655.66;;;9.35;100.00
68941;BME280;55982;51.476;7.552;2023-03-21T05:36:09;99654.91;;;9.31;100.00
68941;BME280;55982;51.476;7.552;2023-03-21T05:38:35;99659.25;;;9.31;100.00
68941;BME280;55982;51.476;7.552;2023-03-21T05:41:00;99659.09;;;9.37;100.00
68941;BME280;55982;51.476;7.552;2023-03-21T05:43:26;99667.53;;;9.45;100.00
68941;BME280;55982;51.476;7.552;2023-03-21T05:45:51;99660.41;;;9.50;100.00
68941;BME280;55982;51.476;7.552;2023-03-21T05:48:17;99658.59;;;9.52;100.00
68941;BME280;55982;51.476;7.552;2023-03-21T05:50:42;99660.22;;;9.56;100.00
68941;BME280;55982;51.476;7.552;2023-03-21T05:53:08;99666.31;;;9.56;100.00
68941;BME280;55982;51.476;7.552;2023-03-21T05:55:33;99668.94;;;9.55;100.00
68941;BME280;55982;51.476;7.552;2023-03-21T05:57:58;99674.28;;;9.52;100.00
68941;BME280;55982;51.476;7.552;2023-03-21T06:00:24;99672.72;;;9.46;100.00
68941;BME280;55982;51.476;7.552;2023-03-21T06:02:49;99668.44;;;9.44;100.00
68941;BME280;55982;51.476;7.552;2023-03-21T06:05:15;99669.34;;;9.43;100.00
68941;BME280;55982;51.476;7.552;2023-03-21T06:07:40;99670.19;;;9.43;100.00
68941;BME280;55982;51.476;7.552;2023-03-21T06:10:06;99676.06;;;9.50;100.00
68941;BME280;55982;51.476;7.552;2023-03-21T06:12:32;99675.03;;;9.55;100.00
68941;BME280;55982;51.476;7.552;2023-03-21T06:14:57;99668.66;;;9.64;100.00
68941;BME280;55982;51.476;7.552;2023-03-21T06:17:22;99661.53;;;9.69;100.00
68941;BME280;55982;51.476;7.552;2023-03-21T06:19:48;99671.91;;;9.72;100.00
68941;BME280;55982;51.476;7.552;2023-03-21T06:22:13;99662.38;;;9.69;100.00
68941;BME280;55982;51.476;7.552;2023-03-21T06:24:38;99659.72;;;9.71;100.00
68941;BME280;55982;51.476;7.552;2023-03-21T06:27:04;99669.22;;;9.73;100.00
68941;BME280;55982;51.476;7.552;2023-03-21T06:29:29;99666.69;;;9.72;100.00
68941;BME280;55982;51.476;7.552;2023-03-21T06:31:55;99654.56;;;9.69;100.00
68941;BME280;55982;51.476;7.552;2023-03-21T06:34:20;99663.16;;;9.73;100.00
68941;BME280;55982;51.476;7.552;2023-03-21T06:36:46;99668.47;;;9.70;100.00
68941;BME280;55982;51.476;7.552;2023-03-21T06:39:11;99664.75;;;9.77;100.00
68941;BME280;55982;51.476;7.552;2023-03-21T06:41:37;99665.69;;;9.76;100.00
68941;BME280;55982;51.476;7.552;2023-03-21T06:44:03;99666.44;;;9.78;100.00
68941;BME280;55982;51.476;7.552;2023-03-21T06:46:28;99663.94;;;9.75;100.00
68941;BME280;55982;51.476;7.552;2023-03-21T06:48:53;99668.66;;;9.64;100.00
68941;BME280;55982;51.476;7.552;2023-03-21T06:51:19;99663.72;;;9.55;100.00
68941;BME280;55982;51.476;7.552;2023-03-21T06:53:45;99665.63;;;9.50;100.00
68941;BME280;55982;51.476;7.552;2023-03-21T06:56:12;99664.97;;;9.43;100.00
68941;BME280;55982;51.476;7.552;2023-03-21T06:58:39;99666.63;;;9.46;100.00
68941;BME280;55982;51.476;7.552;2023-03-21T07:01:05;99670.84;;;9.50;100.00
68941;BME280;55982;51.476;7.552;2023-03-21T07:03:31;99667.34;;;9.51;100.00
68941;BME280;55982;51.476;7.552;2023-03-21T07:05:57;99665.56;;;9.53;100.00
68941;BME280;55982;51.476;7.552;2023-03-21T07:08:23;99670.56;;;9.59;100.00
68941;BME280;55982;51.476;7.552;2023-03-21T07:10:48;99663.53;;;9.61;100.00
68941;BME280;55982;51.476;7.552;2023-03-21T07:13:14;99680.91;;;9.62;100.00
68941;BME280;55982;51.476;7.552;2023-03-21T07:15:40;99677.31;;;9.66;100.00
68941;BME280;55982;51.476;7.552;2023-03-21T07:18:07;99680.81;;;9.65;100.00
68941;BME280;55982;51.476;7.552;2023-03-21T07:20:33;99678.94;;;9.70;100.00
68941;BME280;55982;51.476;7.552;2023-03-21T07:22:59;99675.41;;;9.71;100.00
68941;BME280;55982;51.476;7.552;2023-03-21T07:25:25;99690.38;;;9.66;100.00
68941;BME280;55982;51.476;7.552;2023-03-21T07:27:50;99685.97;;;9.68;100.00
68941;BME280;55982;51.476;7.552;2023-03-21T07:30:16;99693.16;;;9.60;100.00
68941;BME280;55982;51.476;7.552;2023-03-21T07:32:42;99686.34;;;9.56;100.00
68941;BME280;55982;51.476;7.552;2023-03-21T07:35:11;99689.94;;;9.52;100.00
68941;BME280;55982;51.476;7.552;2023-03-21T07:37:38;99679.50;;;9.52;100.00
68941;BME280;55982;51.476;7.552;2023-03-21T07:40:04;99684.91;;;9.46;100.00
68941;BME280;55982;51.476;7.552;2023-03-21T07:42:35;99688.38;;;9.46;100.00
68941;BME280;55982;51.476;7.552;2023-03-21T07:45:01;99681.41;;;9.47;100.00
68941;BME280;55982;51.476;7.552;2023-03-21T07:47:27;99686.50;;;9.50;100.00
68941;BME280;55982;51.476;7.552;2023-03-21T07:49:53;99678.81;;;9.45;100.00
68941;BME280;55982;51.476;7.552;2023-03-21T07:52:19;99686.69;;;9.44;100.00
68941;BME280;55982;51.476;7.552;2023-03-21T07:54:44;99688.31;;;9.48;100.00
68941;BME280;55982;51.476;7.552;2023-03-21T07:57:09;99688.25;;;9.51;100.00
68941;BME280;55982;51.476;7.552;2023-03-21T07:59:35;99686.63;;;9.47;100.00
68941;BME280;55982;51.476;7.552;2023-03-21T08:02:00;99697.13;;;9.44;100.00
68941;BME280;55982;51.476;7.552;2023-03-21T08:04:26;99692.72;;;9.46;100.00
68941;BME280;55982;51.476;7.552;2023-03-21T08:06:52;99691.88;;;9.45;100.00
68941;BME280;55982;51.476;7.552;2023-03-21T08:09:17;99697.88;;;9.49;100.00
68941;BME280;55982;51.476;7.552;2023-03-21T08:11:43;99693.34;;;9.54;100.00
68941;BME280;55982;51.476;7.552;2023-03-21T08:14:08;99702.63;;;9.64;100.00
68941;BME280;55982;51.476;7.552;2023-03-21T08:16:33;99700.56;;;9.73;100.00
68941;BME280;55982;51.476;7.552;2023-03-21T08:18:59;99696.84;;;9.80;100.00
68941;BME280;55982;51.476;7.552;2023-03-21T08:21:24;99698.53;;;9.83;100.00
68941;BME280;55982;51.476;7.552;2023-03-21T08:23:50;99696.00;;;9.80;100.00
68941;BME280;55982;51.476;7.552;2023-03-21T08:26:16;99694.25;;;9.80;100.00
68941;BME280;55982;51.476;7.552;2023-03-21T08:28:43;99694.00;;;9.88;100.00
68941;BME280;55982;51.476;7.552;2023-03-21T08:31:11;99694.84;;;9.88;100.00
68941;BME280;55982;51.476;7.552;2023-03-21T08:33:37;99686.88;;;9.93;100.00
68941;BME280;55982;51.476;7.552;2023-03-21T08:36:04;99693.81;;;9.94;100.00
68941;BME280;55982;51.476;7.552;2023-03-21T08:38:30;99702.56;;;9.93;100.00
68941;BME280;55982;51.476;7.552;2023-03-21T08:40:58;99685.16;;;9.92;100.00
68941;BME280;55982;51.476;7.552;2023-03-21T08:43:25;99682.91;;;9.81;100.00
68941;BME280;55982;51.476;7.552;2023-03-21T08:45:50;99687.28;;;9.81;100.00
68941;BME280;55982;51.476;7.552;2023-03-21T08:48:15;99683.53;;;9.88;100.00
68941;BME280;55982;51.476;7.552;2023-03-21T08:50:41;99687.06;;;9.87;100.00
68941;BME280;55982;51.476;7.552;2023-03-21T08:53:06;99683.16;;;10.00;100.00
68941;BME280;55982;51.476;7.552;2023-03-21T08:55:32;99681.44;;;9.99;100.00
68941;BME280;55982;51.476;7.552;2023-03-21T08:57:58;99678.31;;;10.16;100.00
68941;BME280;55982;51.476;7.552;2023-03-21T09:00:25;99672.75;;;10.25;100.00
68941;BME280;55982;51.476;7.552;2023-03-21T09:02:51;99683.88;;;10.31;100.00
68941;BME280;55982;51.476;7.552;2023-03-21T09:05:18;99678.19;;;10.43;100.00
68941;BME280;55982;51.476;7.552;2023-03-21T09:07:44;99674.69;;;10.44;100.00
68941;BME280;55982;51.476;7.552;2023-03-21T09:10:16;99680.56;;;10.51;100.00
68941;BME280;55982;51.476;7.552;2023-03-21T09:12:42;99678.09;;;10.46;100.00
68941;BME280;55982;51.476;7.552;2023-03-21T09:15:09;99681.41;;;10.51;100.00
68941;BME280;55982;51.476;7.552;2023-03-21T09:17:34;99684.03;;;10.51;100.00
68941;BME280;55982;51.476;7.552;2023-03-21T09:20:00;99690.06;;;10.53;100.00
68941;BME280;55982;51.476;7.552;2023-03-21T09:22:29;99683.41;;;10.43;100.00
68941;BME280;55982;51.476;7.552;2023-03-21T09:24:55;99681.66;;;10.44;100.00
68941;BME280;55982;51.476;7.552;2023-03-21T09:27:21;99682.59;;;10.43;100.00
68941;BME280;55982;51.476;7.552;2023-03-21T09:29:48;99677.25;;;10.46;100.00
68941;BME280;55982;51.476;7.552;2023-03-21T09:32:14;99678.44;;;10.37;100.00
68941;BME280;55982;51.476;7.552;2023-03-21T09:34:39;99683.75;;;10.34;100.00
68941;BME280;55982;51.476;7.552;2023-03-21T09:37:08;99683.53;;;10.40;100.00
68941;BME280;55982;51.476;7.552;2023-03-21T09:39:40;99683.75;;;10.34;100.00
68941;BME280;55982;51.476;7.552;2023-03-21T09:42:20;99683.75;;;10.34;100.00
68941;BME280;55982;51.476;7.552;2023-03-21T09:45:07;99681.84;;;10.39;100.00
68941;BME280;55982;51.476;7.552;2023-03-21T09:47:46;99685.25;;;10.41;100.00
68941;BME280;55982;51.476;7.552;2023-03-21T09:50:32;99686.22;;;10.39;100.00
68941;BME280;55982;51.476;7.552;2023-03-21T09:55:43;99679.00;;;10.45;100.00
68941;BME280;55982;51.476;7.552;2023-03-21T09:58:23;99680.25;;;10.35;100.00
68941;BME280;55982;51.476;7.552;2023-03-21T10:00:58;99679.13;;;10.42;100.00
68941;BME280;55982;51.476;7.552;2023-03-21T10:03:31;99684.22;;;10.45;100.00
68941;BME280;55982;51.476;7.552;2023-03-21T10:06:03;99682.00;;;10.35;100.00
68941;BME280;55982;51.476;7.552;2023-03-21T10:08:34;99674.56;;;10.47;100.00
68941;BME280;55982;51.476;7.552;2023-03-21T10:13:34;99678.63;;;10.56;100.00
68941;BME280;55982;51.476;7.552;2023-03-21T10:16:15;99685.47;;;10.60;100.00
68941;BME280;55982;51.476;7.552;2023-03-21T10:18:41;99685.25;;;10.66;100.00
68941;BME280;55982;51.476;7.552;2023-03-21T10:21:11;99693.13;;;10.64;100.00
68941;BME280;55982;51.476;7.552;2023-03-21T10:23:41;99685.19;;;10.67;100.00
68941;BME280;55982;51.476;7.552;2023-03-21T10:26:06;99687.81;;;10.67;100.00
68941;BME280;55982;51.476;7.552;2023-03-21T10:28:36;99686.09;;;10.66;100.00
68941;BME280;55982;51.476;7.552;2023-03-21T10:31:04;99677.78;;;10.55;100.00
68941;BME280;55982;51.476;7.552;2023-03-21T10:33:42;99674.59;;;10.70;100.00
68941;BME280;55982;51.476;7.552;2023-03-21T10:36:17;99672.00;;;10.70;100.00
68941;BME280;55982;51.476;7.552;2023-03-21T10:38:47;99668.56;;;10.68;100.00
68941;BME280;55982;51.476;7.552;2023-03-21T10:41:13;99664.94;;;10.72;100.00
68941;BME280;55982;51.476;7.552;2023-03-21T10:43:39;99662.38;;;10.71;100.00
68941;BME280;55982;51.476;7.552;2023-03-21T10:46:26;99663.59;;;10.85;100.00
68941;BME280;55982;51.476;7.552;2023-03-21T10:48:52;99665.97;;;10.91;100.00
68941;BME280;55982;51.476;7.552;2023-03-21T10:51:20;99662.53;;;10.91;100.00
68941;BME280;55982;51.476;7.552;2023-03-21T10:53:51;99658.13;;;11.15;100.00
68941;BME280;55982;51.476;7.552;2023-03-21T10:56:22;99651.63;;;11.25;100.00
68941;BME280;55982;51.476;7.552;2023-03-21T10:58:53;99641.16;;;11.25;100.00
68941;BME280;55982;51.476;7.552;2023-03-21T11:03:57;99631.03;;;11.37;100.00
68941;BME280;55982;51.476;7.552;2023-03-21T11:06:31;99636.56;;;11.30;100.00
68941;BME280;55982;51.476;7.552;2023-03-21T11:09:05;99633.56;;;11.40;100.00
68941;BME280;55982;51.476;7.552;2023-03-21T11:11:36;99625.75;;;11.39;100.00
68941;BME280;55982;51.476;7.552;2023-03-21T11:14:05;99632.84;;;11.58;100.00
68941;BME280;55982;51.476;7.552;2023-03-21T11:16:38;99629.81;;;11.69;100.00
68941;BME280;55982;51.476;7.552;2023-03-21T11:19:16;99619.59;;;11.61;100.00
68941;BME280;55982;51.476;7.552;2023-03-21T11:21:42;99625.38;;;11.48;100.00
68941;BME280;55982;51.476;7.552;2023-03-21T11:24:16;99619.78;;;11.57;100.00
68941;BME280;55982;51.476;7.552;2023-03-21T11:26:45;99612.06;;;11.54;100.00
68941;BME280;55982;51.476;7.552;2023-03-21T11:32:24;99612.38;;;11.68;100.00
68941;BME280;55982;51.476;7.552;2023-03-21T11:34:55;99600.28;;;11.64;100.00
68941;BME280;55982;51.476;7.552;2023-03-21T11:37:41;99596.53;;;11.71;100.00
68941;BME280;55982;51.476;7.552;2023-03-21T11:40:26;99591.28;;;11.91;100.00
68941;BME280;55982;51.476;7.552;2023-03-21T11:42:56;99583.16;;;11.97;100.00
68941;BME280;55982;51.476;7.552;2023-03-21T11:45:25;99577.94;;;11.97;100.00
68941;BME280;55982;51.476;7.552;2023-03-21T11:47:53;99573.16;;;12.07;100.00
68941;BME280;55982;51.476;7.552;2023-03-21T11:50:34;99574.97;;;12.25;100.00
68941;BME280;55982;51.476;7.552;2023-03-21T11:53:17;99559.78;;;12.51;100.00
68941;BME280;55982;51.476;7.552;2023-03-21T11:56:23;99557.09;;;12.53;100.00
68941;BME280;55982;51.476;7.552;2023-03-21T12:05:17;99548.53;;;13.05;100.00
68941;BME280;55982;51.476;7.552;2023-03-21T12:27:09;99523.56;;;12.97;100.00
68941;BME280;55982;51.476;7.552;2023-03-21T12:38:22;99506.94;;;13.32;100.00
68941;BME280;55982;51.476;7.552;2023-03-21T12:44:02;99507.88;;;13.14;100.00
68941;BME280;55982;51.476;7.552;2023-03-21T12:47:06;99509.09;;;13.24;100.00
68941;BME280;55982;51.476;7.552;2023-03-21T12:49:47;99504.84;;;13.03;100.00
68941;BME280;55982;51.476;7.552;2023-03-21T12:52:24;99509.69;;;12.93;100.00
68941;BME280;55982;51.476;7.552;2023-03-21T12:57:25;99506.06;;;12.96;100.00
68941;BME280;55982;51.476;7.552;2023-03-21T13:02:46;99495.53;;;12.78;100.00
68941;BME280;55982;51.476;7.552;2023-03-21T13:05:25;99493.72;;;12.62;100.00
68941;BME280;55982;51.476;7.552;2023-03-21T13:08:14;99494.34;;;12.67;100.00
68941;BME280;55982;51.476;7.552;2023-03-21T13:10:41;99487.50;;;12.81;100.00
68941;BME280;55982;51.476;7.552;2023-03-21T13:13:21;99486.38;;;12.68;100.00
68941;BME280;55982;51.476;7.552;2023-03-21T13:16:05;99468.88;;;12.50;100.00
68941;BME280;55982;51.476;7.552;2023-03-21T13:21:42;99481.41;;;12.25;100.00
68941;BME280;55982;51.476;7.552;2023-03-21T13:27:31;99488.25;;;12.09;100.00
68941;BME280;55982;51.476;7.552;2023-03-21T13:30:02;99487.09;;;11.96;100.00
68941;BME280;55982;51.476;7.552;2023-03-21T13:32:36;99472.34;;;11.93;100.00
68941;BME280;55982;51.476;7.552;2023-03-21T13:35:21;99479.63;;;12.07;100.00
68941;BME280;55982;51.476;7.552;2023-03-21T13:38:02;99482.69;;;12.35;100.00
68941;BME280;55982;51.476;7.552;2023-03-21T13:40:39;99468.66;;;12.18;100.00
68941;BME280;55982;51.476;7.552;2023-03-21T13:46:04;99456.44;;;12.35;100.00
68941;BME280;55982;51.476;7.552;2023-03-21T13:48:39;99456.53;;;12.34;100.00
68941;BME280;55982;51.476;7.552;2023-03-21T13:51:06;99459.03;;;12.37;100.00
68941;BME280;55982;51.476;7.552;2023-03-21T13:53:38;99447.81;;;12.52;100.00
68941;BME280;55982;51.476;7.552;2023-03-21T13:58:38;99441.03;;;12.29;100.00
68941;BME280;55982;51.476;7.552;2023-03-21T14:03:46;99425.75;;;12.37;100.00
68941;BME280;55982;51.476;7.552;2023-03-21T14:06:13;99414.28;;;12.21;100.00
68941;BME280;55982;51.476;7.552;2023-03-21T14:08:42;99412.97;;;12.31;100.00
68941;BME280;55982;51.476;7.552;2023-03-21T14:11:13;99409.03;;;12.40;100.00
68941;BME280;55982;51.476;7.552;2023-03-21T14:13:42;99396.81;;;12.57;100.00
68941;BME280;55982;51.476;7.552;2023-03-21T14:16:13;99386.91;;;12.45;100.00
68941;BME280;55982;51.476;7.552;2023-03-21T14:18:44;99393.72;;;12.49;100.00
68941;BME280;55982;51.476;7.552;2023-03-21T14:21:19;99392.59;;;12.36;100.00
68941;BME280;55982;51.476;7.552;2023-03-21T14:23:44;99382.94;;;12.18;100.00
68941;BME280;55982;51.476;7.552;2023-03-21T14:26:11;99364.94;;;12.11;100.00
68941;BME280;55982;51.476;7.552;2023-03-21T14:28:38;99384.16;;;12.11;100.00
68941;BME280;55982;51.476;7.552;2023-03-21T14:31:06;99371.34;;;12.05;100.00
68941;BME280;55982;51.476;7.552;2023-03-21T14:33:35;99379.69;;;12.13;100.00
68941;BME280;55982;51.476;7.552;2023-03-21T14:36:20;99386.00;;;12.09;100.00
68941;BME280;55982;51.476;7.552;2023-03-21T14:41:28;99384.22;;;12.28;100.00
68941;BME280;55982;51.476;7.552;2023-03-21T14:44:32;99377.72;;;12.37;100.00
68941;BME280;55982;51.476;7.552;2023-03-21T14:47:16;99351.47;;;12.37;100.00
68941;BME280;55982;51.476;7.552;2023-03-21T14:49:42;99361.28;;;12.33;100.00